createdAt,value
2022-12-03T00:00:20.374Z,42.97
2022-12-03T00:02:49.020Z,45.37
2022-12-03T00:05:17.582Z,38.77
2022-12-03T00:07:45.984Z,37.63
2022-12-03T00:10:16.068Z,40.20
2022-12-03T00:12:44.424Z,46.13
2022-12-03T00:15:13.968Z,42.37
2022-12-03T00:17:42.330Z,41.73
2022-12-03T00:20:13.114Z,45.80
2022-12-03T00:22:42.271Z,42.23
2022-12-03T00:25:11.831Z,45.90
2022-12-03T00:27:41.698Z,42.20
2022-12-03T00:30:12.151Z,45.93
2022-12-03T00:32:40.744Z,44.03
2022-12-03T00:35:09.740Z,48.40
2022-12-03T00:37:38.118Z,40.17
2022-12-03T00:40:07.856Z,39.73
2022-12-03T00:42:36.294Z,37.43
2022-12-03T00:45:07.101Z,43.23
2022-12-03T00:47:35.454Z,39.27
2022-12-03T00:50:04.429Z,45.23
2022-12-03T00:52:32.777Z,40.20
2022-12-03T00:55:01.231Z,37.60
2022-12-03T00:57:29.922Z,39.40
2022-12-03T00:59:58.275Z,42.30
2022-12-03T01:02:28.117Z,45.90
2022-12-03T01:04:57.059Z,43.13
2022-12-03T01:07:26.042Z,49.43
2022-12-03T01:09:54.475Z,39.63
2022-12-03T01:12:23.014Z,36.73
2022-12-03T01:14:52.277Z,36.30
2022-12-03T01:17:20.980Z,39.53
2022-12-03T01:19:52.707Z,40.00
2022-12-03T01:22:21.151Z,47.47
2022-12-03T01:24:49.774Z,46.10
2022-12-03T01:27:18.234Z,49.53
2022-12-03T01:29:47.063Z,42.87
2022-12-03T01:32:18.072Z,46.73
2022-12-03T01:34:47.411Z,42.97
2022-12-03T01:37:18.051Z,42.07
2022-12-03T01:39:46.690Z,46.00
2022-12-03T01:42:18.516Z,41.30
2022-12-03T01:44:48.733Z,42.50
2022-12-03T01:47:19.490Z,40.97
2022-12-03T01:49:50.918Z,45.37
2022-12-03T01:52:24.628Z,43.60
2022-12-03T01:54:56.787Z,40.67
2022-12-03T01:57:29.646Z,38.40
2022-12-03T02:00:01.064Z,41.63
2022-12-03T02:02:31.955Z,42.40
2022-12-03T02:05:01.412Z,36.47
2022-12-03T02:07:33.321Z,40.60
2022-12-03T02:10:04.082Z,39.60
2022-12-03T02:12:36.565Z,36.90
2022-12-03T02:15:07.744Z,36.93
2022-12-03T02:17:36.295Z,33.37
2022-12-03T02:20:09.012Z,38.53
2022-12-03T02:22:43.513Z,34.77
2022-12-03T02:25:16.699Z,39.07
2022-12-03T02:27:46.292Z,39.03
2022-12-03T02:30:17.295Z,37.40
2022-12-03T02:32:45.960Z,42.73
2022-12-03T02:35:18.834Z,40.03
2022-12-03T02:37:49.501Z,39.27
2022-12-03T02:40:21.801Z,39.07
2022-12-03T02:42:53.751Z,34.53
2022-12-03T02:45:25.309Z,42.10
2022-12-03T02:47:57.883Z,36.07
2022-12-03T02:50:30.206Z,37.97
2022-12-03T02:53:01.432Z,35.90
2022-12-03T02:55:37.155Z,39.97
2022-12-03T02:58:07.446Z,35.97
2022-12-03T03:00:37.464Z,38.43
2022-12-03T03:03:07.117Z,38.83
2022-12-03T03:05:38.507Z,40.77
2022-12-03T03:08:08.369Z,36.90
2022-12-03T03:10:40.872Z,34.93
2022-12-03T03:13:12.168Z,34.10
2022-12-03T03:15:41.883Z,34.53
2022-12-03T03:18:12.577Z,33.53
2022-12-03T03:20:42.486Z,39.33
2022-12-03T03:23:17.882Z,39.87
2022-12-03T03:25:51.197Z,33.33
2022-12-03T03:28:19.983Z,41.60
2022-12-03T03:30:48.715Z,36.00
2022-12-03T03:33:18.073Z,37.17
2022-12-03T03:35:48.900Z,38.33
2022-12-03T03:38:20.302Z,36.43
2022-12-03T03:40:52.376Z,29.87
2022-12-03T03:43:21.947Z,37.87
2022-12-03T03:45:51.115Z,36.07
2022-12-03T03:48:21.104Z,36.47
2022-12-03T03:50:50.862Z,36.37
2022-12-03T03:53:20.043Z,36.10
2022-12-03T03:55:51.768Z,36.67
2022-12-03T03:58:20.387Z,37.27
2022-12-03T04:00:49.263Z,36.57
2022-12-03T04:03:17.697Z,40.37
2022-12-03T04:05:46.897Z,39.93
2022-12-03T04:08:15.799Z,36.83
2022-12-03T04:11:02.083Z,37.70
2022-12-03T04:13:31.813Z,37.17
2022-12-03T04:16:00.282Z,38.63
2022-12-03T04:18:46.954Z,37.07
2022-12-03T04:21:34.853Z,42.07
2022-12-03T04:24:03.984Z,42.90
2022-12-03T04:26:50.066Z,42.83
2022-12-03T04:29:20.368Z,44.13
2022-12-03T04:32:06.484Z,42.43
2022-12-03T04:34:52.722Z,41.50
2022-12-03T04:37:21.851Z,41.53
2022-12-03T04:39:50.324Z,41.23
2022-12-03T04:42:18.653Z,43.10
2022-12-03T04:44:48.657Z,41.10
2022-12-03T04:47:18.995Z,37.13
2022-12-03T04:49:49.320Z,39.83
2022-12-03T04:52:19.402Z,40.70
2022-12-03T04:54:48.349Z,46.10
2022-12-03T04:57:16.739Z,42.00
2022-12-03T04:59:45.850Z,39.60
2022-12-03T05:02:15.679Z,44.27
2022-12-03T05:04:44.279Z,39.37
2022-12-03T05:07:12.728Z,38.40
2022-12-03T05:09:41.302Z,44.57
2022-12-03T05:12:09.840Z,39.73
2022-12-03T05:14:38.279Z,34.90
2022-12-03T05:17:07.081Z,43.57
2022-12-03T05:19:54.055Z,41.03
2022-12-03T05:22:22.528Z,45.13
2022-12-03T05:24:51.657Z,42.37
2022-12-03T05:27:23.908Z,44.20
2022-12-03T05:29:53.153Z,44.87
2022-12-03T05:32:22.246Z,46.13
2022-12-03T05:34:52.936Z,42.90
2022-12-03T05:37:21.833Z,39.83
2022-12-03T05:39:50.355Z,43.53
2022-12-03T05:42:36.267Z,42.27
2022-12-03T05:45:05.345Z,39.17
2022-12-03T05:47:33.688Z,41.83
2022-12-03T05:50:03.445Z,42.83
2022-12-03T05:52:31.865Z,41.50
2022-12-03T05:55:00.407Z,49.13
2022-12-03T05:57:28.789Z,38.67
2022-12-03T05:59:57.390Z,38.77
2022-12-03T06:02:26.171Z,46.07
2022-12-03T06:04:55.064Z,40.90
2022-12-03T06:07:25.308Z,43.67
2022-12-03T06:09:53.918Z,37.83
2022-12-03T06:12:22.294Z,43.90
2022-12-03T06:14:50.806Z,44.10
2022-12-03T06:17:19.502Z,40.53
2022-12-03T06:19:47.994Z,42.03
2022-12-03T06:22:16.371Z,40.20
2022-12-03T06:24:46.424Z,39.40
2022-12-03T06:27:14.893Z,40.60
2022-12-03T06:29:43.477Z,47.10
2022-12-03T06:32:12.085Z,39.23
2022-12-03T06:34:40.685Z,49.10
2022-12-03T06:37:09.121Z,40.00
2022-12-03T06:39:37.736Z,39.63
2022-12-03T06:42:07.857Z,38.30
2022-12-03T06:44:36.232Z,44.10
2022-12-03T06:47:05.066Z,39.70
2022-12-03T06:49:33.945Z,44.17
2022-12-03T06:52:02.363Z,43.70
2022-12-03T06:54:30.791Z,37.97
2022-12-03T06:56:59.337Z,40.03
2022-12-03T06:59:29.297Z,38.87
2022-12-03T07:01:57.762Z,45.73
2022-12-03T07:04:26.333Z,44.53
2022-12-03T07:06:54.740Z,41.03
2022-12-03T07:09:23.221Z,39.57
2022-12-03T07:11:51.574Z,50.63
2022-12-03T07:14:20.009Z,45.00
2022-12-03T07:16:49.891Z,41.17
2022-12-03T07:19:18.317Z,35.60
2022-12-03T07:21:46.938Z,38.33
2022-12-03T07:24:15.743Z,42.00
2022-12-03T07:26:44.112Z,37.83
2022-12-03T07:29:13.236Z,54.53
2022-12-03T07:31:41.713Z,53.47
2022-12-03T07:34:11.665Z,46.50
2022-12-03T07:36:40.285Z,46.50
2022-12-03T07:39:08.682Z,50.37
2022-12-03T07:41:38.187Z,44.90
2022-12-03T07:44:13.833Z,58.30
2022-12-03T07:46:43.846Z,59.30
2022-12-03T07:49:13.837Z,58.03
2022-12-03T07:51:43.142Z,45.27
2022-12-03T07:54:11.551Z,54.03
2022-12-03T07:56:40.107Z,44.07
2022-12-03T07:59:08.675Z,45.73
2022-12-03T08:01:37.617Z,45.37
2022-12-03T08:04:06.906Z,51.37
2022-12-03T08:06:36.831Z,42.73
2022-12-03T08:09:05.413Z,51.90
2022-12-03T08:11:34.696Z,47.90
2022-12-03T08:14:08.946Z,54.73
2022-12-03T08:16:40.829Z,48.83
2022-12-03T08:19:12.482Z,44.53
2022-12-03T08:21:44.133Z,45.70
2022-12-03T08:24:16.420Z,48.27
2022-12-03T08:26:46.116Z,43.13
2022-12-03T08:29:17.058Z,45.43
2022-12-03T08:31:49.838Z,46.17
2022-12-03T08:34:21.025Z,50.47
2022-12-03T08:36:53.745Z,43.70
2022-12-03T08:39:33.416Z,46.13
2022-12-03T08:42:30.843Z,47.60
2022-12-03T08:45:17.942Z,49.97
2022-12-03T08:47:46.389Z,45.17
2022-12-03T08:50:28.432Z,44.77
2022-12-03T08:53:02.136Z,50.60
2022-12-03T08:55:37.604Z,43.53
2022-12-03T08:58:19.681Z,40.93
2022-12-03T09:00:48.263Z,51.43
2022-12-03T09:03:19.939Z,45.70
2022-12-03T09:05:48.354Z,52.90
2022-12-03T09:08:18.298Z,43.20
2022-12-03T09:10:46.746Z,51.10
2022-12-03T09:13:15.249Z,49.70
2022-12-03T09:15:43.690Z,48.43
2022-12-03T09:18:12.099Z,48.83
2022-12-03T09:20:40.555Z,43.57
2022-12-03T09:23:09.614Z,49.43
2022-12-03T09:25:39.441Z,48.00
2022-12-03T09:28:08.619Z,47.13
2022-12-03T09:30:37.100Z,48.83
2022-12-03T09:33:05.697Z,46.40
2022-12-03T09:35:34.131Z,48.13
2022-12-03T09:38:02.607Z,43.90
2022-12-03T09:40:31.209Z,47.97
2022-12-03T09:43:01.216Z,51.80
2022-12-03T09:45:29.629Z,45.03
2022-12-03T09:47:58.108Z,49.07
2022-12-03T09:50:28.470Z,48.97
2022-12-03T09:52:59.992Z,44.27
2022-12-03T09:55:30.143Z,49.23
2022-12-03T09:58:00.949Z,48.03
2022-12-03T10:00:31.779Z,53.33
2022-12-03T10:03:04.530Z,50.23
2022-12-03T10:05:33.451Z,46.40
2022-12-03T10:08:06.844Z,46.67
2022-12-03T10:10:36.842Z,49.33
2022-12-03T10:13:07.614Z,50.67
2022-12-03T10:15:36.053Z,59.43
2022-12-03T10:18:18.114Z,57.20
2022-12-03T10:20:46.867Z,55.77
2022-12-03T10:23:22.520Z,50.27
2022-12-03T10:25:56.958Z,53.67
2022-12-03T10:28:32.632Z,52.47
2022-12-03T10:31:02.116Z,52.67
2022-12-03T10:33:33.188Z,48.07
2022-12-03T10:36:20.862Z,46.87
2022-12-03T10:39:08.118Z,54.60
2022-12-03T10:41:37.985Z,47.30
2022-12-03T10:44:27.642Z,48.40
2022-12-03T10:47:08.240Z,54.03
2022-12-03T10:49:36.840Z,49.13
2022-12-03T10:52:06.258Z,48.73
2022-12-03T10:54:36.679Z,52.93
2022-12-03T10:57:20.384Z,46.43
2022-12-03T10:59:50.451Z,43.33
2022-12-03T11:02:22.391Z,46.43
2022-12-03T11:04:52.098Z,50.27
2022-12-03T11:07:22.191Z,46.07
2022-12-03T11:09:52.520Z,50.90
2022-12-03T11:12:22.942Z,42.20
2022-12-03T11:15:08.404Z,54.00
2022-12-03T11:17:48.930Z,48.47
2022-12-03T11:21:11.342Z,47.93
2022-12-03T11:24:28.224Z,52.60
2022-12-03T11:27:26.774Z,45.23
2022-12-03T11:30:02.146Z,48.63
2022-12-03T11:33:07.619Z,47.80
2022-12-03T11:36:15.538Z,52.03
2022-12-03T11:38:54.528Z,50.07
2022-12-03T11:41:26.720Z,51.00
2022-12-03T11:44:04.656Z,45.03
2022-12-03T11:46:42.099Z,54.17
2022-12-03T11:49:46.202Z,53.63
2022-12-03T11:52:28.423Z,48.67
2022-12-03T11:55:03.000Z,48.93
2022-12-03T11:57:38.072Z,49.37
2022-12-03T12:00:19.954Z,49.87
2022-12-03T12:02:48.891Z,44.03
2022-12-03T12:05:24.153Z,49.17
2022-12-03T12:07:53.228Z,55.27
2022-12-03T12:10:47.363Z,47.23
2022-12-03T12:13:57.702Z,52.87
2022-12-03T12:16:46.267Z,50.47
2022-12-03T12:19:36.940Z,48.97
2022-12-03T12:22:21.677Z,76.03
2022-12-03T12:24:52.756Z,58.50
2022-12-03T12:27:24.633Z,54.40
2022-12-03T12:29:55.588Z,54.00
2022-12-03T12:32:28.017Z,50.70
2022-12-03T12:34:59.150Z,50.73
2022-12-03T12:37:34.936Z,47.17
2022-12-03T12:40:07.772Z,54.37
2022-12-03T12:42:38.952Z,53.40
2022-12-03T12:45:15.153Z,48.93
2022-12-03T12:47:50.569Z,54.83
2022-12-03T12:50:19.944Z,56.23
2022-12-03T12:52:52.667Z,55.20
2022-12-03T12:55:21.851Z,55.13
2022-12-03T12:57:52.220Z,55.83
2022-12-03T13:00:23.580Z,58.07
2022-12-03T13:02:56.209Z,49.17
2022-12-03T13:05:27.921Z,53.33
2022-12-03T13:07:57.434Z,59.93
2022-12-03T13:10:43.620Z,50.07
2022-12-03T13:13:24.136Z,50.40
2022-12-03T13:15:59.363Z,56.87
2022-12-03T13:18:32.656Z,54.33
2022-12-03T13:21:01.552Z,52.73
2022-12-03T13:23:33.475Z,61.93
2022-12-03T13:26:22.347Z,58.27
2022-12-03T13:28:57.447Z,57.83
2022-12-03T13:31:28.535Z,53.13
2022-12-03T13:33:58.187Z,60.87
2022-12-03T13:36:38.249Z,57.57
2022-12-03T13:39:20.618Z,55.03
2022-12-03T13:42:11.507Z,59.70
2022-12-03T13:44:45.737Z,51.83
2022-12-03T13:47:16.511Z,55.17
2022-12-03T13:49:50.680Z,52.93
2022-12-03T13:52:22.710Z,61.10
2022-12-03T13:54:53.278Z,56.00
2022-12-03T13:57:22.445Z,55.73
2022-12-03T13:59:52.677Z,54.53
2022-12-03T14:02:21.637Z,57.23
2022-12-03T14:04:53.018Z,66.77
2022-12-03T14:07:23.838Z,67.83
2022-12-03T14:09:52.572Z,57.47
2022-12-03T14:12:27.054Z,64.33
2022-12-03T14:14:57.397Z,65.13
2022-12-03T14:17:25.925Z,54.30
2022-12-03T14:19:54.609Z,61.37
2022-12-03T14:22:25.552Z,54.77
2022-12-03T14:24:54.510Z,57.80
2022-12-03T14:27:23.398Z,72.23
2022-12-03T14:29:52.755Z,69.67
2022-12-03T14:32:22.935Z,51.77
2022-12-03T14:34:51.409Z,56.20
2022-12-03T14:37:19.946Z,56.23
2022-12-03T14:39:48.368Z,55.40
2022-12-03T14:42:17.042Z,52.40
2022-12-03T14:44:47.538Z,76.90
2022-12-03T14:47:17.793Z,67.07
2022-12-03T14:49:47.669Z,62.33
2022-12-03T14:52:16.358Z,52.00
2022-12-03T14:54:45.107Z,52.93
2022-12-03T14:57:14.989Z,52.07
2022-12-03T14:59:44.126Z,54.47
2022-12-03T15:02:13.454Z,53.80
2022-12-03T15:04:42.564Z,50.80
2022-12-03T15:07:12.511Z,61.40
2022-12-03T15:09:40.882Z,59.17
2022-12-03T15:12:09.619Z,58.63
2022-12-03T15:14:38.028Z,55.50
2022-12-03T15:17:06.552Z,57.40
2022-12-03T15:19:35.345Z,59.00
2022-12-03T15:22:03.718Z,60.47
2022-12-03T15:24:33.610Z,65.07
2022-12-03T15:27:02.030Z,60.20
2022-12-03T15:29:30.613Z,66.03
2022-12-03T15:32:01.247Z,73.20
2022-12-03T15:34:29.733Z,61.40
2022-12-03T15:36:58.213Z,61.77
2022-12-03T15:39:26.658Z,61.17
2022-12-03T15:41:56.477Z,75.63
2022-12-03T15:44:24.928Z,73.47
2022-12-03T15:46:53.293Z,61.23
2022-12-03T15:49:21.676Z,63.47
2022-12-03T15:51:50.027Z,60.00
2022-12-03T15:54:18.503Z,58.47
2022-12-03T15:56:46.896Z,58.17
2022-12-03T15:59:16.732Z,60.80
2022-12-03T16:01:45.647Z,61.47
2022-12-03T16:04:14.206Z,54.80
2022-12-03T16:06:42.606Z,57.70
2022-12-03T16:09:11.065Z,53.40
2022-12-03T16:11:39.454Z,62.47
2022-12-03T16:14:07.962Z,53.43
2022-12-03T16:16:37.789Z,62.93
2022-12-03T16:19:06.507Z,58.00
2022-12-03T16:21:35.345Z,64.07
2022-12-03T16:24:04.040Z,64.50
2022-12-03T16:26:32.720Z,61.63
2022-12-03T16:29:01.364Z,61.37
2022-12-03T16:31:29.904Z,67.47
2022-12-03T16:33:59.864Z,68.63
2022-12-03T16:36:28.798Z,68.43
2022-12-03T16:38:58.239Z,91.90
2022-12-03T16:41:26.907Z,135.63
2022-12-03T16:43:55.275Z,81.63
2022-12-03T16:46:26.471Z,80.37
2022-12-03T16:48:55.848Z,68.17
2022-12-03T16:51:26.405Z,78.00
2022-12-03T16:53:54.938Z,56.97
2022-12-03T16:56:23.457Z,64.83
2022-12-03T16:58:51.848Z,69.83
2022-12-03T17:01:20.427Z,66.57
2022-12-03T17:03:49.327Z,71.53
2022-12-03T17:06:17.858Z,74.23
2022-12-03T17:08:49.938Z,71.27
2022-12-03T17:11:19.131Z,59.90
2022-12-03T17:13:47.805Z,65.37
2022-12-03T17:16:16.353Z,66.80
2022-12-03T17:18:44.824Z,69.03
2022-12-03T17:21:13.248Z,70.33
2022-12-03T17:23:41.653Z,68.17
2022-12-03T17:26:11.492Z,69.90
2022-12-03T17:28:40.127Z,75.67
2022-12-03T17:31:08.565Z,76.30
2022-12-03T17:33:37.114Z,71.93
2022-12-03T17:36:06.476Z,69.40
2022-12-03T17:38:39.057Z,73.57
2022-12-03T17:41:08.501Z,75.07
2022-12-03T17:43:38.431Z,74.43
2022-12-03T17:46:07.682Z,68.97
2022-12-03T17:48:36.688Z,70.90
2022-12-03T17:51:05.519Z,64.93
2022-12-03T17:53:33.976Z,68.13
2022-12-03T17:56:02.508Z,73.27
2022-12-03T17:58:31.072Z,73.73
2022-12-03T18:01:03.142Z,77.47
2022-12-03T18:03:32.443Z,74.43
2022-12-03T18:06:00.896Z,73.60
2022-12-03T18:08:29.703Z,78.47
2022-12-03T18:10:58.148Z,76.80
2022-12-03T18:13:26.865Z,77.63
2022-12-03T18:15:55.919Z,75.90
2022-12-03T18:18:25.886Z,77.10
2022-12-03T18:20:54.660Z,82.13
2022-12-03T18:23:23.142Z,77.37
2022-12-03T18:25:51.523Z,83.53
2022-12-03T18:28:19.956Z,72.60
2022-12-03T18:30:52.471Z,81.33
2022-12-03T18:33:21.652Z,150.90
2022-12-03T18:35:54.620Z,130.47
2022-12-03T18:38:27.254Z,94.33
2022-12-03T18:40:57.937Z,75.17
2022-12-03T18:43:28.959Z,82.57
2022-12-03T18:45:57.434Z,106.97
2022-12-03T18:48:26.670Z,86.63
2022-12-03T18:50:56.709Z,107.00
2022-12-03T18:53:25.478Z,90.60
2022-12-03T18:55:53.843Z,90.00
2022-12-03T18:58:22.229Z,82.00
2022-12-03T19:00:50.717Z,83.80
2022-12-03T19:03:19.325Z,73.43
2022-12-03T19:05:47.756Z,78.43
2022-12-03T19:08:19.519Z,78.40
2022-12-03T19:11:01.355Z,75.00
2022-12-03T19:13:34.494Z,77.17
2022-12-03T19:16:04.239Z,74.60
2022-12-03T19:18:32.951Z,76.20
2022-12-03T19:21:01.500Z,70.80
2022-12-03T19:23:31.371Z,76.80
2022-12-03T19:26:01.289Z,74.07
2022-12-03T19:28:30.504Z,71.83
2022-12-03T19:31:00.866Z,70.33
2022-12-03T19:33:29.541Z,74.93
2022-12-03T19:35:59.384Z,68.03
2022-12-03T19:38:29.285Z,75.83
2022-12-03T19:41:03.930Z,68.47
2022-12-03T19:43:34.253Z,71.47
2022-12-03T19:46:04.885Z,64.17
2022-12-03T19:48:34.088Z,64.37
2022-12-03T19:51:26.568Z,71.43
2022-12-03T19:53:51.652Z,69.87
2022-12-03T19:56:21.600Z,69.03
2022-12-03T19:58:50.092Z,71.03
2022-12-03T20:01:20.197Z,75.60
2022-12-03T20:03:50.281Z,66.67
2022-12-03T20:06:20.606Z,74.30
2022-12-03T20:08:49.200Z,72.90
2022-12-03T20:11:19.329Z,75.87
2022-12-03T20:13:50.653Z,74.43
2022-12-03T20:16:19.357Z,71.63
2022-12-03T20:18:49.343Z,69.67
2022-12-03T20:21:19.425Z,65.17
2022-12-03T20:23:48.659Z,73.90
2022-12-03T20:26:19.664Z,64.33
2022-12-03T20:28:49.812Z,73.30
2022-12-03T20:31:20.619Z,65.43
2022-12-03T20:33:51.646Z,68.47
2022-12-03T20:36:22.912Z,69.60
2022-12-03T20:38:55.898Z,72.67
2022-12-03T20:41:24.869Z,70.17
2022-12-03T20:43:55.082Z,71.40
2022-12-03T20:46:26.100Z,75.40
2022-12-03T20:48:55.554Z,74.33
2022-12-03T20:51:25.733Z,67.60
2022-12-03T20:53:54.389Z,74.30
2022-12-03T20:56:26.201Z,68.60
2022-12-03T20:58:56.328Z,61.73
2022-12-03T21:01:27.323Z,77.50
2022-12-03T21:03:57.225Z,73.80
2022-12-03T21:06:27.050Z,75.97
2022-12-03T21:08:57.135Z,72.93
2022-12-03T21:11:29.694Z,78.27
2022-12-03T21:14:00.930Z,74.63
2022-12-03T21:17:06.072Z,66.60
2022-12-03T21:19:22.158Z,69.43
2022-12-03T21:21:56.817Z,71.20
2022-12-03T21:24:28.202Z,80.53
2022-12-03T21:27:13.619Z,70.63
2022-12-03T21:29:50.134Z,74.00
2022-12-03T21:32:18.668Z,73.70
2022-12-03T21:34:47.159Z,87.23
2022-12-03T21:37:15.654Z,86.87
2022-12-03T21:39:44.004Z,78.90
2022-12-03T21:42:18.673Z,87.07
2022-12-03T21:45:11.121Z,94.37
2022-12-03T21:47:55.323Z,85.57
2022-12-03T21:50:26.844Z,89.40
2022-12-03T21:52:55.962Z,86.60
2022-12-03T21:55:24.485Z,85.83
2022-12-03T21:57:53.161Z,78.57
2022-12-03T22:00:23.686Z,80.17
2022-12-03T22:02:52.695Z,85.57
2022-12-03T22:05:21.175Z,81.93
2022-12-03T22:07:49.643Z,83.53
2022-12-03T22:10:18.164Z,81.70
2022-12-03T22:12:46.649Z,80.20
2022-12-03T22:15:18.729Z,91.03
2022-12-03T22:17:49.138Z,84.07
2022-12-03T22:20:17.830Z,85.40
2022-12-03T22:22:46.636Z,95.47
2022-12-03T22:25:15.093Z,82.03
2022-12-03T22:27:43.607Z,82.80
2022-12-03T22:30:12.440Z,83.13
2022-12-03T22:32:40.813Z,80.97
2022-12-03T22:35:14.534Z,84.67
2022-12-03T22:37:42.994Z,79.60
2022-12-03T22:40:12.081Z,79.10
2022-12-03T22:42:40.614Z,83.03
2022-12-03T22:45:09.490Z,77.93
2022-12-03T22:47:37.887Z,74.50
2022-12-03T22:50:07.347Z,79.63
2022-12-03T22:52:37.401Z,83.70
2022-12-03T22:55:06.507Z,86.47
2022-12-03T22:57:35.017Z,84.07
2022-12-03T23:00:07.120Z,87.17
2022-12-03T23:02:35.504Z,95.70
2022-12-03T23:05:03.993Z,95.20
2022-12-03T23:07:32.394Z,97.70
2022-12-03T23:10:02.285Z,90.80
2022-12-03T23:12:30.630Z,93.00
2022-12-03T23:14:59.103Z,89.57
2022-12-03T23:17:27.591Z,98.73
2022-12-03T23:19:56.185Z,146.50
2022-12-03T23:22:24.872Z,145.87
2022-12-03T23:24:53.364Z,193.70
2022-12-03T23:27:23.285Z,166.90
2022-12-03T23:29:52.149Z,133.93
2022-12-03T23:32:20.647Z,106.43
2022-12-03T23:34:49.622Z,91.80
2022-12-03T23:37:18.080Z,91.27
2022-12-03T23:39:49.190Z,90.43
2022-12-03T23:42:17.812Z,89.33
2022-12-03T23:44:47.643Z,81.90
2022-12-03T23:47:16.484Z,84.70
2022-12-03T23:49:44.861Z,80.47
2022-12-03T23:52:13.412Z,78.87
2022-12-03T23:54:41.904Z,75.17
2022-12-03T23:57:10.428Z,76.67
2022-12-03T23:59:39.365Z,79.17
